sensor_id;sensor_type;location;lat;lon;timestamp;P1;durP1;ratioP1;P2;durP2;ratioP2
16854;SDS011;8543;54.522;18.550;2023-06-14T00:00:12;8.00;;;3.40;;
16854;SDS011;8543;54.522;18.550;2023-06-14T00:02:39;10.20;;;3.70;;
16854;SDS011;8543;54.522;18.550;2023-06-14T00:05:05;7.50;;;3.60;;
16854;SDS011;8543;54.522;18.550;2023-06-14T00:07:40;9.70;;;3.70;;
16854;SDS011;8543;54.522;18.550;2023-06-14T00:10:09;11.80;;;3.80;;
16854;SDS011;8543;54.522;18.550;2023-06-14T00:12:36;14.10;;;4.70;;
16854;SDS011;8543;54.522;18.550;2023-06-14T00:15:01;16.20;;;4.50;;
16854;SDS011;8543;54.522;18.550;2023-06-14T00:17:27;17.50;;;4.50;;
16854;SDS011;8543;54.522;18.550;2023-06-14T00:19:56;17.20;;;4.60;;
16854;SDS011;8543;54.522;18.550;2023-06-14T00:22:23;14.00;;;4.10;;
16854;SDS011;8543;54.522;18.550;2023-06-14T00:24:53;16.00;;;4.80;;
16854;SDS011;8543;54.522;18.550;2023-06-14T00:27:19;16.30;;;4.70;;
16854;SDS011;8543;54.522;18.550;2023-06-14T00:29:44;12.10;;;4.60;;
16854;SDS011;8543;54.522;18.550;2023-06-14T00:32:10;12.90;;;4.40;;
16854;SDS011;8543;54.522;18.550;2023-06-14T00:34:35;10.70;;;4.20;;
16854;SDS011;8543;54.522;18.550;2023-06-14T00:37:01;12.40;;;3.70;;
16854;SDS011;8543;54.522;18.550;2023-06-14T00:39:26;11.80;;;3.80;;
16854;SDS011;8543;54.522;18.550;2023-06-14T00:41:52;11.00;;;4.10;;
16854;SDS011;8543;54.522;18.550;2023-06-14T00:44:17;9.10;;;4.10;;
16854;SDS011;8543;54.522;18.550;2023-06-14T00:46:43;8.30;;;3.30;;
16854;SDS011;8543;54.522;18.550;2023-06-14T00:49:09;8.40;;;3.50;;
16854;SDS011;8543;54.522;18.550;2023-06-14T00:51:35;7.60;;;3.60;;
16854;SDS011;8543;54.522;18.550;2023-06-14T00:54:02;7.00;;;3.30;;
16854;SDS011;8543;54.522;18.550;2023-06-14T00:56:28;8.30;;;4.10;;
16854;SDS011;8543;54.522;18.550;2023-06-14T00:58:53;6.50;;;3.60;;
16854;SDS011;8543;54.522;18.550;2023-06-14T01:01:18;8.10;;;3.60;;
16854;SDS011;8543;54.522;18.550;2023-06-14T01:03:44;9.60;;;4.10;;
16854;SDS011;8543;54.522;18.550;2023-06-14T01:09:09;6.90;;;3.50;;
16854;SDS011;8543;54.522;18.550;2023-06-14T01:14:56;6.50;;;3.90;;
16854;SDS011;8543;54.522;18.550;2023-06-14T01:17:22;9.20;;;3.90;;
16854;SDS011;8543;54.522;18.550;2023-06-14T01:19:48;7.10;;;4.10;;
16854;SDS011;8543;54.522;18.550;2023-06-14T01:22:14;6.40;;;3.70;;
16854;SDS011;8543;54.522;18.550;2023-06-14T01:24:39;5.80;;;3.80;;
16854;SDS011;8543;54.522;18.550;2023-06-14T01:27:09;9.20;;;3.50;;
16854;SDS011;8543;54.522;18.550;2023-06-14T01:29:35;6.80;;;3.80;;
16854;SDS011;8543;54.522;18.550;2023-06-14T01:32:01;9.40;;;4.00;;
16854;SDS011;8543;54.522;18.550;2023-06-14T01:34:27;6.60;;;3.60;;
16854;SDS011;8543;54.522;18.550;2023-06-14T01:36:53;5.60;;;3.60;;
16854;SDS011;8543;54.522;18.550;2023-06-14T01:39:21;6.80;;;3.90;;
16854;SDS011;8543;54.522;18.550;2023-06-14T01:41:47;11.20;;;4.30;;
16854;SDS011;8543;54.522;18.550;2023-06-14T01:44:14;7.60;;;4.00;;
16854;SDS011;8543;54.522;18.550;2023-06-14T01:46:41;7.80;;;3.60;;
16854;SDS011;8543;54.522;18.550;2023-06-14T01:49:07;7.20;;;4.20;;
16854;SDS011;8543;54.522;18.550;2023-06-14T01:51:33;6.80;;;3.80;;
16854;SDS011;8543;54.522;18.550;2023-06-14T01:53:58;7.40;;;4.20;;
16854;SDS011;8543;54.522;18.550;2023-06-14T01:56:25;6.30;;;3.80;;
16854;SDS011;8543;54.522;18.550;2023-06-14T01:58:51;8.80;;;4.20;;
16854;SDS011;8543;54.522;18.550;2023-06-14T02:01:16;5.50;;;3.20;;
16854;SDS011;8543;54.522;18.550;2023-06-14T02:03:44;7.10;;;4.00;;
16854;SDS011;8543;54.522;18.550;2023-06-14T02:06:10;7.40;;;3.50;;
16854;SDS011;8543;54.522;18.550;2023-06-14T02:08:35;9.70;;;3.60;;
16854;SDS011;8543;54.522;18.550;2023-06-14T02:11:01;6.90;;;3.70;;
16854;SDS011;8543;54.522;18.550;2023-06-14T02:13:26;5.80;;;3.40;;
16854;SDS011;8543;54.522;18.550;2023-06-14T02:15:52;8.70;;;3.60;;
16854;SDS011;8543;54.522;18.550;2023-06-14T02:18:19;9.10;;;3.90;;
16854;SDS011;8543;54.522;18.550;2023-06-14T02:20:46;7.20;;;3.60;;
16854;SDS011;8543;54.522;18.550;2023-06-14T02:23:12;7.60;;;3.50;;
16854;SDS011;8543;54.522;18.550;2023-06-14T02:25:37;6.80;;;3.70;;
16854;SDS011;8543;54.522;18.550;2023-06-14T02:28:04;7.90;;;3.60;;
16854;SDS011;8543;54.522;18.550;2023-06-14T02:30:30;5.50;;;3.50;;
16854;SDS011;8543;54.522;18.550;2023-06-14T02:32:56;7.70;;;4.30;;
16854;SDS011;8543;54.522;18.550;2023-06-14T02:35:21;6.40;;;3.90;;
16854;SDS011;8543;54.522;18.550;2023-06-14T02:37:49;5.90;;;3.50;;
16854;SDS011;8543;54.522;18.550;2023-06-14T02:40:16;8.20;;;3.80;;
16854;SDS011;8543;54.522;18.550;2023-06-14T02:42:41;7.70;;;4.00;;
16854;SDS011;8543;54.522;18.550;2023-06-14T02:45:07;10.00;;;3.90;;
16854;SDS011;8543;54.522;18.550;2023-06-14T02:47:33;6.60;;;3.80;;
16854;SDS011;8543;54.522;18.550;2023-06-14T02:49:58;9.30;;;3.60;;
16854;SDS011;8543;54.522;18.550;2023-06-14T02:52:24;7.40;;;3.40;;
16854;SDS011;8543;54.522;18.550;2023-06-14T02:54:50;8.20;;;3.60;;
16854;SDS011;8543;54.522;18.550;2023-06-14T02:57:15;7.20;;;4.20;;
16854;SDS011;8543;54.522;18.550;2023-06-14T02:59:41;8.70;;;4.00;;
16854;SDS011;8543;54.522;18.550;2023-06-14T03:02:06;6.60;;;3.70;;
16854;SDS011;8543;54.522;18.550;2023-06-14T03:04:32;7.10;;;4.00;;
16854;SDS011;8543;54.522;18.550;2023-06-14T03:07:02;8.00;;;4.40;;
16854;SDS011;8543;54.522;18.550;2023-06-14T03:09:34;9.20;;;3.90;;
16854;SDS011;8543;54.522;18.550;2023-06-14T03:12:03;6.80;;;3.80;;
16854;SDS011;8543;54.522;18.550;2023-06-14T03:14:30;7.40;;;3.60;;
16854;SDS011;8543;54.522;18.550;2023-06-14T03:16:56;8.00;;;3.50;;
16854;SDS011;8543;54.522;18.550;2023-06-14T03:19:24;9.00;;;3.90;;
16854;SDS011;8543;54.522;18.550;2023-06-14T03:21:50;8.70;;;3.70;;
16854;SDS011;8543;54.522;18.550;2023-06-14T03:24:16;6.80;;;4.20;;
16854;SDS011;8543;54.522;18.550;2023-06-14T03:26:42;7.90;;;3.30;;
16854;SDS011;8543;54.522;18.550;2023-06-14T03:29:08;8.80;;;3.80;;
16854;SDS011;8543;54.522;18.550;2023-06-14T03:31:34;7.40;;;3.30;;
16854;SDS011;8543;54.522;18.550;2023-06-14T03:34:00;8.20;;;4.00;;
16854;SDS011;8543;54.522;18.550;2023-06-14T03:36:26;6.70;;;3.80;;
16854;SDS011;8543;54.522;18.550;2023-06-14T03:38:52;9.90;;;4.30;;
16854;SDS011;8543;54.522;18.550;2023-06-14T03:41:18;7.80;;;4.10;;
16854;SDS011;8543;54.522;18.550;2023-06-14T03:43:44;7.40;;;4.10;;
16854;SDS011;8543;54.522;18.550;2023-06-14T03:46:09;10.80;;;4.20;;
16854;SDS011;8543;54.522;18.550;2023-06-14T03:48:35;6.90;;;3.90;;
16854;SDS011;8543;54.522;18.550;2023-06-14T03:51:00;7.00;;;3.80;;
16854;SDS011;8543;54.522;18.550;2023-06-14T03:53:26;8.30;;;3.70;;
16854;SDS011;8543;54.522;18.550;2023-06-14T03:55:53;9.40;;;4.00;;
16854;SDS011;8543;54.522;18.550;2023-06-14T03:58:19;8.60;;;3.40;;
16854;SDS011;8543;54.522;18.550;2023-06-14T04:00:44;8.20;;;4.10;;
16854;SDS011;8543;54.522;18.550;2023-06-14T04:03:11;5.70;;;3.50;;
16854;SDS011;8543;54.522;18.550;2023-06-14T04:05:38;7.00;;;3.50;;
16854;SDS011;8543;54.522;18.550;2023-06-14T04:08:07;8.10;;;4.20;;
16854;SDS011;8543;54.522;18.550;2023-06-14T04:10:34;8.80;;;3.90;;
16854;SDS011;8543;54.522;18.550;2023-06-14T04:12:59;7.40;;;3.90;;
16854;SDS011;8543;54.522;18.550;2023-06-14T04:15:24;8.90;;;4.60;;
16854;SDS011;8543;54.522;18.550;2023-06-14T04:17:50;6.80;;;3.80;;
16854;SDS011;8543;54.522;18.550;2023-06-14T04:20:16;6.60;;;3.70;;
16854;SDS011;8543;54.522;18.550;2023-06-14T04:22:42;6.70;;;3.90;;
16854;SDS011;8543;54.522;18.550;2023-06-14T04:25:08;9.40;;;3.50;;
16854;SDS011;8543;54.522;18.550;2023-06-14T04:27:33;8.50;;;4.30;;
16854;SDS011;8543;54.522;18.550;2023-06-14T04:30:01;5.90;;;3.90;;
16854;SDS011;8543;54.522;18.550;2023-06-14T04:32:27;8.10;;;3.70;;
16854;SDS011;8543;54.522;18.550;2023-06-14T04:34:57;8.80;;;4.00;;
16854;SDS011;8543;54.522;18.550;2023-06-14T04:37:24;7.70;;;4.50;;
16854;SDS011;8543;54.522;18.550;2023-06-14T04:39:53;6.50;;;3.80;;
16854;SDS011;8543;54.522;18.550;2023-06-14T04:42:21;8.10;;;3.80;;
16854;SDS011;8543;54.522;18.550;2023-06-14T04:44:50;8.60;;;3.80;;
16854;SDS011;8543;54.522;18.550;2023-06-14T04:47:16;8.50;;;4.00;;
16854;SDS011;8543;54.522;18.550;2023-06-14T04:49:42;7.20;;;3.70;;
16854;SDS011;8543;54.522;18.550;2023-06-14T04:52:07;8.20;;;3.60;;
16854;SDS011;8543;54.522;18.550;2023-06-14T04:54:35;8.40;;;3.90;;
16854;SDS011;8543;54.522;18.550;2023-06-14T04:57:04;10.40;;;4.40;;
16854;SDS011;8543;54.522;18.550;2023-06-14T04:59:30;8.30;;;3.90;;
16854;SDS011;8543;54.522;18.550;2023-06-14T05:01:58;8.50;;;4.20;;
16854;SDS011;8543;54.522;18.550;2023-06-14T05:04:25;7.50;;;4.10;;
16854;SDS011;8543;54.522;18.550;2023-06-14T05:06:51;7.70;;;3.70;;
16854;SDS011;8543;54.522;18.550;2023-06-14T05:09:19;8.50;;;4.30;;
16854;SDS011;8543;54.522;18.550;2023-06-14T05:11:45;9.40;;;4.10;;
16854;SDS011;8543;54.522;18.550;2023-06-14T05:14:12;9.10;;;4.20;;
16854;SDS011;8543;54.522;18.550;2023-06-14T05:16:39;9.00;;;4.50;;
16854;SDS011;8543;54.522;18.550;2023-06-14T05:19:04;8.50;;;4.80;;
16854;SDS011;8543;54.522;18.550;2023-06-14T05:21:30;7.20;;;4.90;;
16854;SDS011;8543;54.522;18.550;2023-06-14T05:23:57;11.00;;;4.70;;
16854;SDS011;8543;54.522;18.550;2023-06-14T05:26:22;8.70;;;4.60;;
16854;SDS011;8543;54.522;18.550;2023-06-14T05:28:50;7.70;;;4.40;;
16854;SDS011;8543;54.522;18.550;2023-06-14T05:31:17;11.80;;;5.10;;
16854;SDS011;8543;54.522;18.550;2023-06-14T05:33:43;10.30;;;5.20;;
16854;SDS011;8543;54.522;18.550;2023-06-14T05:36:08;9.50;;;4.90;;
16854;SDS011;8543;54.522;18.550;2023-06-14T05:38:33;7.90;;;4.70;;
16854;SDS011;8543;54.522;18.550;2023-06-14T05:40:59;7.00;;;4.70;;
16854;SDS011;8543;54.522;18.550;2023-06-14T05:43:24;10.20;;;5.20;;
16854;SDS011;8543;54.522;18.550;2023-06-14T05:45:50;8.60;;;4.20;;
16854;SDS011;8543;54.522;18.550;2023-06-14T05:48:16;14.20;;;5.00;;
16854;SDS011;8543;54.522;18.550;2023-06-14T05:50:41;7.70;;;4.70;;
16854;SDS011;8543;54.522;18.550;2023-06-14T05:53:06;9.50;;;4.80;;
16854;SDS011;8543;54.522;18.550;2023-06-14T05:55:32;15.50;;;5.00;;
16854;SDS011;8543;54.522;18.550;2023-06-14T05:57:57;8.30;;;4.70;;
16854;SDS011;8543;54.522;18.550;2023-06-14T06:00:23;9.70;;;4.80;;
16854;SDS011;8543;54.522;18.550;2023-06-14T06:02:48;9.10;;;5.10;;
16854;SDS011;8543;54.522;18.550;2023-06-14T06:05:14;10.60;;;5.20;;
16854;SDS011;8543;54.522;18.550;2023-06-14T06:07:40;12.80;;;5.40;;
16854;SDS011;8543;54.522;18.550;2023-06-14T06:10:06;10.80;;;5.50;;
16854;SDS011;8543;54.522;18.550;2023-06-14T06:12:33;12.10;;;5.30;;
16854;SDS011;8543;54.522;18.550;2023-06-14T06:14:58;14.30;;;5.60;;
16854;SDS011;8543;54.522;18.550;2023-06-14T06:17:25;11.30;;;5.70;;
16854;SDS011;8543;54.522;18.550;2023-06-14T06:19:51;9.80;;;5.30;;
16854;SDS011;8543;54.522;18.550;2023-06-14T06:22:16;11.00;;;4.90;;
16854;SDS011;8543;54.522;18.550;2023-06-14T06:24:42;9.80;;;4.50;;
16854;SDS011;8543;54.522;18.550;2023-06-14T06:27:08;10.20;;;4.50;;
16854;SDS011;8543;54.522;18.550;2023-06-14T06:29:33;13.20;;;5.10;;
16854;SDS011;8543;54.522;18.550;2023-06-14T06:32:00;9.40;;;4.30;;
16854;SDS011;8543;54.522;18.550;2023-06-14T06:34:25;8.70;;;4.20;;
16854;SDS011;8543;54.522;18.550;2023-06-14T06:36:51;9.30;;;4.50;;
16854;SDS011;8543;54.522;18.550;2023-06-14T06:39:16;7.70;;;3.90;;
16854;SDS011;8543;54.522;18.550;2023-06-14T06:41:41;7.60;;;4.30;;
16854;SDS011;8543;54.522;18.550;2023-06-14T06:44:07;6.60;;;3.70;;
16854;SDS011;8543;54.522;18.550;2023-06-14T06:46:33;5.70;;;4.20;;
16854;SDS011;8543;54.522;18.550;2023-06-14T06:49:00;7.50;;;4.20;;
16854;SDS011;8543;54.522;18.550;2023-06-14T06:51:25;9.00;;;4.70;;
16854;SDS011;8543;54.522;18.550;2023-06-14T06:53:54;7.50;;;4.10;;
16854;SDS011;8543;54.522;18.550;2023-06-14T06:56:20;8.60;;;4.60;;
16854;SDS011;8543;54.522;18.550;2023-06-14T06:58:46;8.10;;;4.40;;
16854;SDS011;8543;54.522;18.550;2023-06-14T07:01:12;9.60;;;4.00;;
16854;SDS011;8543;54.522;18.550;2023-06-14T07:03:38;6.50;;;4.00;;
16854;SDS011;8543;54.522;18.550;2023-06-14T07:06:03;11.80;;;4.60;;
16854;SDS011;8543;54.522;18.550;2023-06-14T07:08:29;6.40;;;4.20;;
16854;SDS011;8543;54.522;18.550;2023-06-14T07:10:55;7.90;;;3.60;;
16854;SDS011;8543;54.522;18.550;2023-06-14T07:13:21;8.00;;;4.50;;
16854;SDS011;8543;54.522;18.550;2023-06-14T07:15:47;7.10;;;4.20;;
16854;SDS011;8543;54.522;18.550;2023-06-14T07:18:12;5.70;;;4.10;;
16854;SDS011;8543;54.522;18.550;2023-06-14T07:20:38;8.70;;;4.00;;
16854;SDS011;8543;54.522;18.550;2023-06-14T07:23:04;8.30;;;4.40;;
16854;SDS011;8543;54.522;18.550;2023-06-14T07:25:30;9.60;;;4.40;;
16854;SDS011;8543;54.522;18.550;2023-06-14T07:27:56;9.20;;;4.60;;
16854;SDS011;8543;54.522;18.550;2023-06-14T07:30:21;8.60;;;4.40;;
16854;SDS011;8543;54.522;18.550;2023-06-14T07:32:51;9.90;;;5.10;;
16854;SDS011;8543;54.522;18.550;2023-06-14T07:35:17;9.30;;;5.20;;
16854;SDS011;8543;54.522;18.550;2023-06-14T07:37:43;10.20;;;5.00;;
16854;SDS011;8543;54.522;18.550;2023-06-14T07:40:09;9.00;;;4.60;;
16854;SDS011;8543;54.522;18.550;2023-06-14T07:42:35;9.10;;;5.00;;
16854;SDS011;8543;54.522;18.550;2023-06-14T07:45:01;9.70;;;4.70;;
16854;SDS011;8543;54.522;18.550;2023-06-14T07:47:29;8.30;;;5.00;;
16854;SDS011;8543;54.522;18.550;2023-06-14T07:49:55;8.30;;;5.00;;
16854;SDS011;8543;54.522;18.550;2023-06-14T07:52:20;8.20;;;4.60;;
16854;SDS011;8543;54.522;18.550;2023-06-14T07:54:46;8.70;;;4.50;;
16854;SDS011;8543;54.522;18.550;2023-06-14T07:57:11;8.20;;;4.60;;
16854;SDS011;8543;54.522;18.550;2023-06-14T07:59:37;7.40;;;4.40;;
16854;SDS011;8543;54.522;18.550;2023-06-14T08:02:02;9.10;;;5.20;;
16854;SDS011;8543;54.522;18.550;2023-06-14T08:04:28;8.60;;;4.30;;
16854;SDS011;8543;54.522;18.550;2023-06-14T08:06:53;9.40;;;4.60;;
16854;SDS011;8543;54.522;18.550;2023-06-14T08:09:19;5.30;;;3.70;;
16854;SDS011;8543;54.522;18.550;2023-06-14T08:11:44;7.50;;;4.30;;
16854;SDS011;8543;54.522;18.550;2023-06-14T08:14:10;7.00;;;4.20;;
16854;SDS011;8543;54.522;18.550;2023-06-14T08:16:36;10.20;;;4.40;;
16854;SDS011;8543;54.522;18.550;2023-06-14T08:19:01;11.80;;;4.50;;
16854;SDS011;8543;54.522;18.550;2023-06-14T08:21:27;8.20;;;4.00;;
16854;SDS011;8543;54.522;18.550;2023-06-14T08:23:54;6.80;;;3.90;;
16854;SDS011;8543;54.522;18.550;2023-06-14T08:26:20;7.00;;;4.30;;
16854;SDS011;8543;54.522;18.550;2023-06-14T08:28:46;7.90;;;4.10;;
16854;SDS011;8543;54.522;18.550;2023-06-14T08:31:11;8.30;;;3.80;;
16854;SDS011;8543;54.522;18.550;2023-06-14T08:33:37;7.50;;;3.90;;
16854;SDS011;8543;54.522;18.550;2023-06-14T08:36:04;7.50;;;3.90;;
16854;SDS011;8543;54.522;18.550;2023-06-14T08:38:29;8.90;;;3.80;;
16854;SDS011;8543;54.522;18.550;2023-06-14T08:40:56;7.30;;;4.20;;
16854;SDS011;8543;54.522;18.550;2023-06-14T08:43:23;9.80;;;4.10;;
16854;SDS011;8543;54.522;18.550;2023-06-14T08:45:48;8.50;;;4.70;;
16854;SDS011;8543;54.522;18.550;2023-06-14T08:48:19;12.30;;;4.60;;
16854;SDS011;8543;54.522;18.550;2023-06-14T08:50:46;7.70;;;4.50;;
16854;SDS011;8543;54.522;18.550;2023-06-14T08:53:13;11.10;;;5.00;;
16854;SDS011;8543;54.522;18.550;2023-06-14T08:55:45;7.40;;;4.30;;
16854;SDS011;8543;54.522;18.550;2023-06-14T08:58:10;8.90;;;4.30;;
16854;SDS011;8543;54.522;18.550;2023-06-14T09:00:40;11.10;;;4.30;;
16854;SDS011;8543;54.522;18.550;2023-06-14T09:03:08;8.00;;;4.30;;
16854;SDS011;8543;54.522;18.550;2023-06-14T09:05:38;10.90;;;4.90;;
16854;SDS011;8543;54.522;18.550;2023-06-14T09:08:03;8.70;;;4.50;;
16854;SDS011;8543;54.522;18.550;2023-06-14T09:10:30;6.20;;;3.70;;
16854;SDS011;8543;54.522;18.550;2023-06-14T09:13:00;13.20;;;4.80;;
16854;SDS011;8543;54.522;18.550;2023-06-14T09:15:26;9.00;;;3.80;;
16854;SDS011;8543;54.522;18.550;2023-06-14T09:17:51;8.60;;;4.30;;
16854;SDS011;8543;54.522;18.550;2023-06-14T09:20:18;8.20;;;3.80;;
16854;SDS011;8543;54.522;18.550;2023-06-14T09:22:44;6.90;;;3.90;;
16854;SDS011;8543;54.522;18.550;2023-06-14T09:25:09;6.70;;;3.70;;
16854;SDS011;8543;54.522;18.550;2023-06-14T09:27:36;8.50;;;4.30;;
16854;SDS011;8543;54.522;18.550;2023-06-14T09:30:05;7.70;;;3.90;;
16854;SDS011;8543;54.522;18.550;2023-06-14T09:32:32;8.20;;;4.00;;
16854;SDS011;8543;54.522;18.550;2023-06-14T09:35:01;6.00;;;3.70;;
16854;SDS011;8543;54.522;18.550;2023-06-14T09:37:30;6.70;;;3.70;;
16854;SDS011;8543;54.522;18.550;2023-06-14T09:39:57;9.40;;;4.00;;
16854;SDS011;8543;54.522;18.550;2023-06-14T09:42:23;7.80;;;4.00;;
16854;SDS011;8543;54.522;18.550;2023-06-14T09:44:52;10.40;;;4.30;;
16854;SDS011;8543;54.522;18.550;2023-06-14T09:47:19;8.80;;;3.70;;
16854;SDS011;8543;54.522;18.550;2023-06-14T09:49:45;6.60;;;3.80;;
16854;SDS011;8543;54.522;18.550;2023-06-14T09:52:13;9.20;;;4.40;;
16854;SDS011;8543;54.522;18.550;2023-06-14T09:54:41;5.80;;;3.90;;
16854;SDS011;8543;54.522;18.550;2023-06-14T09:57:11;9.10;;;4.20;;
16854;SDS011;8543;54.522;18.550;2023-06-14T09:59:41;9.00;;;4.10;;
16854;SDS011;8543;54.522;18.550;2023-06-14T10:02:13;9.20;;;4.40;;
16854;SDS011;8543;54.522;18.550;2023-06-14T10:04:46;10.60;;;4.30;;
16854;SDS011;8543;54.522;18.550;2023-06-14T10:07:14;8.70;;;4.20;;
16854;SDS011;8543;54.522;18.550;2023-06-14T10:09:40;7.90;;;4.20;;
16854;SDS011;8543;54.522;18.550;2023-06-14T10:12:09;7.90;;;4.20;;
16854;SDS011;8543;54.522;18.550;2023-06-14T10:14:35;8.20;;;4.20;;
16854;SDS011;8543;54.522;18.550;2023-06-14T10:17:08;10.80;;;4.00;;
16854;SDS011;8543;54.522;18.550;2023-06-14T10:20:37;7.90;;;4.10;;
16854;SDS011;8543;54.522;18.550;2023-06-14T10:22:44;8.60;;;4.60;;
16854;SDS011;8543;54.522;18.550;2023-06-14T10:25:35;6.20;;;3.80;;
16854;SDS011;8543;54.522;18.550;2023-06-14T10:28:19;12.50;;;4.50;;
16854;SDS011;8543;54.522;18.550;2023-06-14T10:33:33;6.50;;;4.00;;
16854;SDS011;8543;54.522;18.550;2023-06-14T10:36:09;10.40;;;4.00;;
16854;SDS011;8543;54.522;18.550;2023-06-14T10:38:36;8.90;;;3.90;;
16854;SDS011;8543;54.522;18.550;2023-06-14T10:41:03;9.50;;;4.90;;
16854;SDS011;8543;54.522;18.550;2023-06-14T10:43:29;10.80;;;5.10;;
16854;SDS011;8543;54.522;18.550;2023-06-14T10:48:43;10.70;;;4.80;;
16854;SDS011;8543;54.522;18.550;2023-06-14T10:51:18;12.30;;;4.70;;
16854;SDS011;8543;54.522;18.550;2023-06-14T10:53:45;9.40;;;4.30;;
16854;SDS011;8543;54.522;18.550;2023-06-14T10:56:28;10.00;;;4.60;;
16854;SDS011;8543;54.522;18.550;2023-06-14T10:58:56;9.20;;;4.40;;
16854;SDS011;8543;54.522;18.550;2023-06-14T11:01:32;8.30;;;4.10;;
16854;SDS011;8543;54.522;18.550;2023-06-14T11:04:08;7.60;;;4.30;;
16854;SDS011;8543;54.522;18.550;2023-06-14T11:11:50;11.50;;;4.60;;
16854;SDS011;8543;54.522;18.550;2023-06-14T11:14:16;10.80;;;4.70;;
16854;SDS011;8543;54.522;18.550;2023-06-14T11:16:47;10.40;;;4.50;;
16854;SDS011;8543;54.522;18.550;2023-06-14T11:19:13;10.40;;;4.20;;
16854;SDS011;8543;54.522;18.550;2023-06-14T11:21:46;8.20;;;4.30;;
16854;SDS011;8543;54.522;18.550;2023-06-14T11:24:12;11.30;;;4.30;;
16854;SDS011;8543;54.522;18.550;2023-06-14T11:26:38;7.90;;;4.30;;
16854;SDS011;8543;54.522;18.550;2023-06-14T11:29:03;7.60;;;4.10;;
16854;SDS011;8543;54.522;18.550;2023-06-14T11:31:29;11.30;;;4.40;;
16854;SDS011;8543;54.522;18.550;2023-06-14T11:33:55;11.40;;;4.80;;
16854;SDS011;8543;54.522;18.550;2023-06-14T11:36:22;7.60;;;4.70;;
16854;SDS011;8543;54.522;18.550;2023-06-14T11:38:48;10.30;;;4.50;;
16854;SDS011;8543;54.522;18.550;2023-06-14T11:41:13;11.90;;;4.20;;
16854;SDS011;8543;54.522;18.550;2023-06-14T11:43:39;11.50;;;4.60;;
16854;SDS011;8543;54.522;18.550;2023-06-14T11:46:11;8.40;;;4.40;;
16854;SDS011;8543;54.522;18.550;2023-06-14T11:48:40;6.80;;;4.50;;
16854;SDS011;8543;54.522;18.550;2023-06-14T11:51:07;13.20;;;4.70;;
16854;SDS011;8543;54.522;18.550;2023-06-14T11:53:32;13.00;;;4.50;;
16854;SDS011;8543;54.522;18.550;2023-06-14T11:55:58;8.30;;;4.50;;
16854;SDS011;8543;54.522;18.550;2023-06-14T11:58:23;10.00;;;4.50;;
16854;SDS011;8543;54.522;18.550;2023-06-14T12:00:50;8.60;;;3.90;;
16854;SDS011;8543;54.522;18.550;2023-06-14T12:03:17;9.10;;;4.10;;
16854;SDS011;8543;54.522;18.550;2023-06-14T12:05:42;10.00;;;4.10;;
16854;SDS011;8543;54.522;18.550;2023-06-14T12:08:08;8.60;;;4.40;;
16854;SDS011;8543;54.522;18.550;2023-06-14T12:10:41;8.70;;;4.40;;
16854;SDS011;8543;54.522;18.550;2023-06-14T12:13:10;10.20;;;4.30;;
16854;SDS011;8543;54.522;18.550;2023-06-14T12:15:36;9.30;;;4.00;;
16854;SDS011;8543;54.522;18.550;2023-06-14T12:18:04;9.60;;;4.00;;
16854;SDS011;8543;54.522;18.550;2023-06-14T12:20:31;6.60;;;3.90;;
16854;SDS011;8543;54.522;18.550;2023-06-14T12:23:00;7.00;;;3.70;;
16854;SDS011;8543;54.522;18.550;2023-06-14T12:28:14;11.00;;;4.20;;
16854;SDS011;8543;54.522;18.550;2023-06-14T12:30:39;6.20;;;4.10;;
16854;SDS011;8543;54.522;18.550;2023-06-14T12:33:04;8.30;;;3.60;;
16854;SDS011;8543;54.522;18.550;2023-06-14T12:35:30;7.90;;;4.10;;
16854;SDS011;8543;54.522;18.550;2023-06-14T12:37:56;10.40;;;4.30;;
16854;SDS011;8543;54.522;18.550;2023-06-14T12:40:21;8.10;;;3.90;;
16854;SDS011;8543;54.522;18.550;2023-06-14T12:42:47;9.60;;;4.10;;
16854;SDS011;8543;54.522;18.550;2023-06-14T12:45:13;6.80;;;4.30;;
16854;SDS011;8543;54.522;18.550;2023-06-14T12:47:38;7.60;;;4.10;;
16854;SDS011;8543;54.522;18.550;2023-06-14T12:50:04;7.30;;;4.10;;
16854;SDS011;8543;54.522;18.550;2023-06-14T12:52:30;6.50;;;3.50;;
16854;SDS011;8543;54.522;18.550;2023-06-14T12:54:55;7.60;;;4.00;;
16854;SDS011;8543;54.522;18.550;2023-06-14T12:57:21;7.70;;;3.80;;
16854;SDS011;8543;54.522;18.550;2023-06-14T12:59:46;6.40;;;4.00;;
16854;SDS011;8543;54.522;18.550;2023-06-14T13:04:38;7.80;;;4.10;;
16854;SDS011;8543;54.522;18.550;2023-06-14T13:07:04;10.00;;;4.20;;
16854;SDS011;8543;54.522;18.550;2023-06-14T13:09:29;6.50;;;3.80;;
16854;SDS011;8543;54.522;18.550;2023-06-14T13:11:55;8.90;;;4.20;;
16854;SDS011;8543;54.522;18.550;2023-06-14T13:14:20;8.90;;;4.20;;
16854;SDS011;8543;54.522;18.550;2023-06-14T13:16:46;9.10;;;4.10;;
16854;SDS011;8543;54.522;18.550;2023-06-14T13:19:11;9.60;;;3.90;;
16854;SDS011;8543;54.522;18.550;2023-06-14T13:21:37;7.90;;;4.00;;
16854;SDS011;8543;54.522;18.550;2023-06-14T13:24:02;8.00;;;4.00;;
16854;SDS011;8543;54.522;18.550;2023-06-14T13:26:28;11.10;;;4.30;;
16854;SDS011;8543;54.522;18.550;2023-06-14T13:28:53;7.10;;;3.70;;
16854;SDS011;8543;54.522;18.550;2023-06-14T13:31:19;9.90;;;4.50;;
16854;SDS011;8543;54.522;18.550;2023-06-14T13:33:44;9.00;;;3.80;;
16854;SDS011;8543;54.522;18.550;2023-06-14T13:36:10;8.00;;;4.10;;
16854;SDS011;8543;54.522;18.550;2023-06-14T13:38:35;8.70;;;4.10;;
16854;SDS011;8543;54.522;18.550;2023-06-14T13:41:01;8.10;;;4.40;;
16854;SDS011;8543;54.522;18.550;2023-06-14T13:43:26;7.60;;;4.20;;
16854;SDS011;8543;54.522;18.550;2023-06-14T13:45:51;12.10;;;4.60;;
16854;SDS011;8543;54.522;18.550;2023-06-14T13:48:17;10.40;;;4.60;;
16854;SDS011;8543;54.522;18.550;2023-06-14T13:50:43;12.40;;;4.50;;
16854;SDS011;8543;54.522;18.550;2023-06-14T13:53:11;15.20;;;4.60;;
16854;SDS011;8543;54.522;18.550;2023-06-14T13:55:36;9.80;;;4.30;;
16854;SDS011;8543;54.522;18.550;2023-06-14T13:58:02;8.40;;;3.80;;
16854;SDS011;8543;54.522;18.550;2023-06-14T14:00:27;12.00;;;4.70;;
16854;SDS011;8543;54.522;18.550;2023-06-14T14:02:53;7.20;;;3.70;;
16854;SDS011;8543;54.522;18.550;2023-06-14T14:05:19;9.50;;;4.30;;
16854;SDS011;8543;54.522;18.550;2023-06-14T14:07:45;7.80;;;3.90;;
16854;SDS011;8543;54.522;18.550;2023-06-14T14:10:11;10.00;;;3.90;;
16854;SDS011;8543;54.522;18.550;2023-06-14T14:12:38;8.20;;;3.80;;
16854;SDS011;8543;54.522;18.550;2023-06-14T14:15:04;9.50;;;3.80;;
16854;SDS011;8543;54.522;18.550;2023-06-14T14:17:32;10.30;;;4.00;;
16854;SDS011;8543;54.522;18.550;2023-06-14T14:19:58;6.40;;;3.60;;
16854;SDS011;8543;54.522;18.550;2023-06-14T14:22:24;9.20;;;3.90;;
16854;SDS011;8543;54.522;18.550;2023-06-14T14:24:49;5.60;;;3.70;;
16854;SDS011;8543;54.522;18.550;2023-06-14T14:27:15;6.10;;;3.30;;
16854;SDS011;8543;54.522;18.550;2023-06-14T14:29:40;8.60;;;3.60;;
16854;SDS011;8543;54.522;18.550;2023-06-14T14:32:06;8.80;;;3.60;;
16854;SDS011;8543;54.522;18.550;2023-06-14T14:34:31;7.10;;;3.40;;
16854;SDS011;8543;54.522;18.550;2023-06-14T14:36:57;8.50;;;3.70;;
16854;SDS011;8543;54.522;18.550;2023-06-14T14:39:22;10.00;;;3.80;;
16854;SDS011;8543;54.522;18.550;2023-06-14T14:41:48;7.20;;;3.40;;
16854;SDS011;8543;54.522;18.550;2023-06-14T14:44:14;8.30;;;3.70;;
16854;SDS011;8543;54.522;18.550;2023-06-14T14:46:40;8.40;;;3.30;;
16854;SDS011;8543;54.522;18.550;2023-06-14T14:49:06;7.20;;;3.90;;
16854;SDS011;8543;54.522;18.550;2023-06-14T14:51:31;8.50;;;3.80;;
16854;SDS011;8543;54.522;18.550;2023-06-14T14:53:57;10.60;;;3.90;;
16854;SDS011;8543;54.522;18.550;2023-06-14T14:56:22;9.00;;;3.80;;
16854;SDS011;8543;54.522;18.550;2023-06-14T14:58:48;11.50;;;4.30;;
16854;SDS011;8543;54.522;18.550;2023-06-14T15:01:14;8.20;;;3.60;;
16854;SDS011;8543;54.522;18.550;2023-06-14T15:03:40;9.60;;;3.80;;